createdAt,value
2022-12-29T00:01:02.919Z,7.38
2022-12-29T00:03:30.820Z,7.32
2022-12-29T00:05:59.485Z,7.27
2022-12-29T00:08:42.090Z,7.31
2022-12-29T00:11:17.013Z,7.18
2022-12-29T00:14:03.899Z,7.03
2022-12-29T00:16:36.798Z,7.33
2022-12-29T00:19:05.989Z,7.40
2022-12-29T00:21:53.151Z,7.29
2022-12-29T00:24:23.059Z,7.22
2022-12-29T00:27:22.963Z,6.94
2022-12-29T00:30:09.492Z,7.17
2022-12-29T00:32:55.771Z,7.22
2022-12-29T00:35:48.008Z,7.18
2022-12-29T00:38:34.624Z,7.27
2022-12-29T00:41:20.527Z,7.25
2022-12-29T00:44:06.242Z,7.14
2022-12-29T00:46:42.803Z,7.31
2022-12-29T00:49:32.099Z,7.39
2022-12-29T00:52:12.468Z,7.46
2022-12-29T00:54:46.755Z,7.58
2022-12-29T00:57:14.729Z,7.64
2022-12-29T00:59:43.516Z,7.33
2022-12-29T01:02:11.950Z,7.41
2022-12-29T01:04:40.037Z,7.50
2022-12-29T01:07:08.091Z,7.45
2022-12-29T01:09:55.045Z,7.13
2022-12-29T01:12:41.247Z,7.12
2022-12-29T01:15:14.853Z,7.15
2022-12-29T01:17:43.661Z,7.22
2022-12-29T01:20:12.384Z,7.25
2022-12-29T01:22:40.508Z,7.40
2022-12-29T01:25:08.904Z,7.47
2022-12-29T01:27:39.627Z,7.50
2022-12-29T01:30:08.108Z,7.63
2022-12-29T01:32:35.771Z,7.72
2022-12-29T01:35:04.193Z,7.71
2022-12-29T01:37:32.085Z,7.81
2022-12-29T01:39:59.938Z,7.81
2022-12-29T01:42:27.838Z,7.69
2022-12-29T01:44:59.415Z,7.77
2022-12-29T01:47:55.581Z,7.79
2022-12-29T01:50:46.448Z,7.87
2022-12-29T01:53:23.852Z,7.98
2022-12-29T01:55:57.340Z,8.08
2022-12-29T01:58:31.255Z,8.11
2022-12-29T02:01:00.459Z,8.16
2022-12-29T02:03:30.513Z,8.26
2022-12-29T02:06:07.638Z,8.18
2022-12-29T02:08:35.679Z,8.19
2022-12-29T02:11:04.705Z,8.21
2022-12-29T02:13:35.603Z,8.24
2022-12-29T02:16:35.397Z,8.19
2022-12-29T02:19:28.287Z,8.08
2022-12-29T02:21:55.964Z,8.12
2022-12-29T02:24:44.564Z,8.14
2022-12-29T02:27:30.250Z,8.17
2022-12-29T02:30:14.833Z,7.88
2022-12-29T02:33:04.456Z,8.04
2022-12-29T02:35:57.554Z,8.02
2022-12-29T02:39:02.856Z,7.98
2022-12-29T02:42:11.870Z,7.95
2022-12-29T02:45:05.802Z,8.05
2022-12-29T02:48:17.054Z,8.06
2022-12-29T02:51:04.305Z,7.94
2022-12-29T02:53:53.479Z,8.02
2022-12-29T02:56:21.936Z,8.04
2022-12-29T02:58:49.740Z,8.06
2022-12-29T03:01:32.967Z,8.02
2022-12-29T03:04:17.009Z,7.93
2022-12-29T03:07:11.268Z,7.86
2022-12-29T03:10:36.623Z,7.92
2022-12-29T03:14:06.684Z,7.88
2022-12-29T03:16:52.136Z,7.92
2022-12-29T03:19:36.339Z,7.96
2022-12-29T03:22:32.346Z,8.04
2022-12-29T03:25:12.262Z,8.13
2022-12-29T03:27:48.637Z,8.06
2022-12-29T03:30:16.956Z,8.40
2022-12-29T03:32:58.516Z,8.74
2022-12-29T03:35:34.631Z,9.11
2022-12-29T03:38:12.184Z,9.43
2022-12-29T03:40:45.069Z,9.57
2022-12-29T03:43:14.200Z,9.59
2022-12-29T03:45:42.806Z,9.64
2022-12-29T03:48:11.036Z,10.08
2022-12-29T03:50:42.240Z,10.15
2022-12-29T03:53:10.663Z,10.38
2022-12-29T03:55:40.298Z,10.48
2022-12-29T03:58:09.025Z,10.42
2022-12-29T04:01:00.023Z,10.46
2022-12-29T04:03:28.322Z,10.50
2022-12-29T04:05:55.973Z,10.47
2022-12-29T04:08:24.096Z,10.58
2022-12-29T04:10:51.997Z,10.58
2022-12-29T04:13:22.696Z,10.69
2022-12-29T04:15:51.072Z,10.77
2022-12-29T04:18:19.988Z,10.74
2022-12-29T04:21:03.822Z,10.92
2022-12-29T04:23:38.036Z,10.87
2022-12-29T04:26:10.174Z,10.92
2022-12-29T04:28:56.543Z,11.14
2022-12-29T04:31:50.534Z,11.20
2022-12-29T04:34:19.485Z,11.31
2022-12-29T04:36:49.057Z,11.34
2022-12-29T04:39:16.851Z,11.44
2022-12-29T04:41:44.844Z,11.47
2022-12-29T04:44:18.249Z,11.50
2022-12-29T04:46:58.126Z,11.28
2022-12-29T04:49:46.778Z,11.35
2022-12-29T04:52:34.185Z,11.34
2022-12-29T04:55:04.491Z,11.27
2022-12-29T04:57:32.707Z,11.07
2022-12-29T05:00:02.464Z,10.85
2022-12-29T05:02:30.703Z,10.75
2022-12-29T05:04:58.733Z,11.04
2022-12-29T05:07:27.910Z,11.19
2022-12-29T05:09:56.797Z,10.77
2022-12-29T05:12:24.531Z,10.91
2022-12-29T05:15:00.457Z,10.74
2022-12-29T05:17:28.640Z,10.65
2022-12-29T05:19:57.302Z,10.67
2022-12-29T05:22:25.974Z,10.55
2022-12-29T05:24:55.382Z,10.59
2022-12-29T05:27:25.584Z,10.72
2022-12-29T05:30:01.615Z,11.03
2022-12-29T05:32:29.264Z,11.33
2022-12-29T05:34:56.987Z,11.11
2022-12-29T05:37:26.512Z,11.08
2022-12-29T05:39:54.235Z,11.22
2022-12-29T05:42:22.293Z,11.15
2022-12-29T05:45:09.725Z,11.20
2022-12-29T05:48:15.615Z,11.28
2022-12-29T05:51:05.680Z,11.19
2022-12-29T05:53:42.141Z,11.33
2022-12-29T05:56:14.466Z,11.37
2022-12-29T05:58:42.562Z,11.39
2022-12-29T06:01:10.478Z,11.34
2022-12-29T06:03:42.955Z,11.43
2022-12-29T06:06:14.077Z,11.43
2022-12-29T06:08:41.709Z,11.63
2022-12-29T06:11:10.862Z,11.65
2022-12-29T06:13:40.210Z,11.45
2022-12-29T06:16:08.713Z,11.64
2022-12-29T06:18:39.175Z,11.61
2022-12-29T06:21:07.122Z,11.58
2022-12-29T06:23:35.117Z,11.59
2022-12-29T06:26:02.829Z,11.65
2022-12-29T06:28:30.686Z,11.59
2022-12-29T06:30:58.871Z,11.59
2022-12-29T06:33:27.113Z,11.54
2022-12-29T06:35:54.902Z,11.56
2022-12-29T06:38:22.814Z,11.49
2022-12-29T06:40:50.455Z,11.46
2022-12-29T06:43:21.094Z,11.48
2022-12-29T06:46:02.905Z,11.57
2022-12-29T06:48:30.526Z,11.62
2022-12-29T06:50:58.466Z,11.60
2022-12-29T06:53:26.527Z,11.65
2022-12-29T06:55:54.446Z,11.59
2022-12-29T06:58:22.157Z,11.58
2022-12-29T07:00:50.232Z,11.57
2022-12-29T07:03:18.117Z,11.65
2022-12-29T07:05:45.915Z,11.66
2022-12-29T07:08:13.572Z,11.49
2022-12-29T07:10:41.768Z,11.42
2022-12-29T07:13:09.391Z,11.44
2022-12-29T07:15:38.872Z,11.49
2022-12-29T07:18:06.626Z,11.52
2022-12-29T07:20:34.637Z,11.46
2022-12-29T07:23:03.000Z,11.48
2022-12-29T07:25:30.708Z,11.41
2022-12-29T07:27:58.386Z,11.25
2022-12-29T07:30:26.215Z,11.07
2022-12-29T07:32:53.943Z,11.04
2022-12-29T07:35:22.613Z,10.98
2022-12-29T07:37:50.474Z,10.88
2022-12-29T07:40:18.049Z,11.02
2022-12-29T07:42:45.698Z,10.98
2022-12-29T07:45:16.497Z,11.17
2022-12-29T07:49:09.616Z,11.11
2022-12-29T07:51:38.034Z,11.22
2022-12-29T07:54:06.436Z,11.28
2022-12-29T07:56:34.542Z,11.29
2022-12-29T07:59:02.442Z,11.27
2022-12-29T08:01:30.400Z,11.28
2022-12-29T08:03:58.400Z,11.32
2022-12-29T08:06:51.608Z,11.34
2022-12-29T08:09:22.635Z,11.40
2022-12-29T08:11:52.180Z,11.45
2022-12-29T08:14:19.806Z,11.45
2022-12-29T08:16:47.689Z,11.72
2022-12-29T08:19:15.495Z,11.90
2022-12-29T08:21:43.165Z,11.88
2022-12-29T08:24:11.349Z,12.06
2022-12-29T08:26:39.091Z,12.24
2022-12-29T08:29:06.784Z,12.32
2022-12-29T08:31:35.621Z,12.47
2022-12-29T08:34:04.403Z,12.48
2022-12-29T08:36:32.366Z,12.45
2022-12-29T08:38:59.984Z,12.57
2022-12-29T08:41:27.597Z,12.77
2022-12-29T08:43:55.252Z,12.84
2022-12-29T08:46:23.071Z,12.86
2022-12-29T08:48:50.802Z,12.98
2022-12-29T08:51:22.984Z,13.06
2022-12-29T08:53:53.228Z,13.02
2022-12-29T08:56:21.609Z,13.03
2022-12-29T08:58:53.467Z,13.00
2022-12-29T09:01:22.792Z,13.11
2022-12-29T09:06:40.635Z,13.35
2022-12-29T09:09:08.992Z,13.34
2022-12-29T09:11:36.745Z,13.18
2022-12-29T09:14:05.218Z,13.07
2022-12-29T09:16:36.278Z,13.20
2022-12-29T09:19:04.940Z,13.28
2022-12-29T09:21:32.851Z,13.37
2022-12-29T09:24:00.558Z,13.48
2022-12-29T09:26:28.268Z,13.52
2022-12-29T09:28:55.959Z,13.77
2022-12-29T09:31:23.669Z,13.77
2022-12-29T09:33:51.290Z,13.80
2022-12-29T09:36:18.975Z,13.79
2022-12-29T09:38:46.587Z,13.85
2022-12-29T09:41:35.627Z,14.00
2022-12-29T09:44:37.793Z,13.84
2022-12-29T09:47:11.594Z,14.28
2022-12-29T09:50:28.263Z,14.48
2022-12-29T09:53:11.143Z,14.65
2022-12-29T09:56:01.601Z,14.84
2022-12-29T09:58:42.457Z,14.76
2022-12-29T10:01:29.526Z,14.90
2022-12-29T10:03:59.816Z,14.87
2022-12-29T10:07:29.064Z,14.97
2022-12-29T10:10:24.373Z,15.10
2022-12-29T10:13:16.878Z,14.58
2022-12-29T10:16:24.835Z,14.78
2022-12-29T10:19:14.442Z,14.75
2022-12-29T10:22:08.665Z,14.72
2022-12-29T10:24:40.584Z,14.70
2022-12-29T10:27:14.088Z,14.97
2022-12-29T10:29:49.855Z,14.99
2022-12-29T10:32:25.008Z,15.00
2022-12-29T10:35:00.460Z,15.01
2022-12-29T10:37:44.078Z,15.06
2022-12-29T10:40:31.023Z,15.02
2022-12-29T10:43:00.375Z,15.11
2022-12-29T10:45:32.096Z,15.34
2022-12-29T10:48:20.876Z,15.39
2022-12-29T10:50:50.958Z,14.96
2022-12-29T10:53:27.832Z,15.43
2022-12-29T10:55:56.126Z,15.88
2022-12-29T10:58:26.065Z,15.86
2022-12-29T11:00:56.622Z,15.91
2022-12-29T11:03:51.844Z,15.76
2022-12-29T11:06:33.236Z,15.40
2022-12-29T11:09:14.986Z,15.45
2022-12-29T11:11:46.088Z,15.17
2022-12-29T11:14:36.300Z,15.23
2022-12-29T11:17:05.277Z,15.03
2022-12-29T11:19:40.735Z,15.01
2022-12-29T11:22:29.168Z,15.20
2022-12-29T11:25:13.199Z,15.31
2022-12-29T11:27:56.321Z,15.48
2022-12-29T11:30:30.471Z,15.13
2022-12-29T11:32:59.278Z,14.91
2022-12-29T11:35:42.293Z,14.99
2022-12-29T11:38:26.464Z,15.04
2022-12-29T11:40:54.464Z,15.05
2022-12-29T11:43:57.124Z,14.79
2022-12-29T11:46:32.412Z,14.76
2022-12-29T11:49:01.664Z,14.70
2022-12-29T11:51:38.145Z,15.05
2022-12-29T11:54:07.168Z,15.20
2022-12-29T11:56:41.274Z,15.28
2022-12-29T11:59:41.860Z,15.37
2022-12-29T12:02:56.071Z,15.59
2022-12-29T12:05:32.017Z,15.71
2022-12-29T12:08:32.333Z,15.63
2022-12-29T12:11:16.626Z,15.47
2022-12-29T12:14:02.492Z,15.30
2022-12-29T12:16:55.614Z,15.15
2022-12-29T12:19:47.926Z,15.10
2022-12-29T12:22:37.652Z,15.30
2022-12-29T12:25:12.430Z,15.06
2022-12-29T12:28:37.746Z,14.87
2022-12-29T12:31:17.512Z,14.94
2022-12-29T12:33:53.371Z,15.11
2022-12-29T12:36:59.838Z,14.77
2022-12-29T12:39:54.748Z,14.96
2022-12-29T12:42:52.751Z,14.66
2022-12-29T12:45:41.299Z,14.29
2022-12-29T12:48:39.937Z,14.09
2022-12-29T12:51:29.618Z,13.81
2022-12-29T12:54:07.194Z,13.69
2022-12-29T12:56:55.365Z,13.68
2022-12-29T13:00:00.524Z,14.20
2022-12-29T13:02:46.268Z,14.75
2022-12-29T13:05:26.809Z,14.95
2022-12-29T13:08:19.396Z,15.24
2022-12-29T13:10:59.540Z,15.52
2022-12-29T13:13:48.819Z,15.53
2022-12-29T13:16:47.455Z,14.73
2022-12-29T13:19:39.661Z,15.49
2022-12-29T13:22:25.990Z,15.83
2022-12-29T13:25:08.773Z,15.98
2022-12-29T13:28:01.817Z,15.93
2022-12-29T13:30:51.689Z,15.98
2022-12-29T13:33:34.488Z,16.21
2022-12-29T13:36:18.174Z,15.63
2022-12-29T13:38:50.274Z,15.00
2022-12-29T13:41:30.942Z,14.99
2022-12-29T13:44:02.810Z,14.85
2022-12-29T13:46:42.286Z,14.56
2022-12-29T13:49:25.385Z,14.73
2022-12-29T13:51:57.806Z,14.95
2022-12-29T13:54:55.392Z,15.04
2022-12-29T13:57:58.422Z,14.99
2022-12-29T14:00:31.511Z,15.30
2022-12-29T14:03:11.436Z,15.02
2022-12-29T14:05:39.860Z,15.17
2022-12-29T14:08:18.362Z,15.02
2022-12-29T14:10:51.630Z,14.83
2022-12-29T14:13:23.268Z,14.99
2022-12-29T14:15:59.817Z,15.15
2022-12-29T14:18:35.302Z,14.88
2022-12-29T14:21:19.942Z,15.30
2022-12-29T14:23:52.337Z,15.76
2022-12-29T14:26:31.872Z,15.52
2022-12-29T14:29:26.889Z,14.88
2022-12-29T14:31:54.758Z,15.39
2022-12-29T14:34:22.496Z,16.06
2022-12-29T14:37:04.560Z,16.68
2022-12-29T14:39:47.115Z,16.96
2022-12-29T14:42:23.511Z,17.00
2022-12-29T14:45:21.492Z,16.07
2022-12-29T14:47:54.734Z,15.64
2022-12-29T14:50:51.892Z,14.84
2022-12-29T14:53:50.896Z,15.02
2022-12-29T14:56:21.199Z,15.11
2022-12-29T14:59:04.133Z,15.21
2022-12-29T15:01:49.961Z,15.19
2022-12-29T15:04:24.420Z,15.00
2022-12-29T15:06:52.991Z,14.81
2022-12-29T15:09:37.991Z,14.53
2022-12-29T15:12:37.787Z,14.35
2022-12-29T15:15:22.723Z,14.47
2022-12-29T15:17:50.628Z,14.53
2022-12-29T15:20:25.628Z,14.44
2022-12-29T15:23:19.770Z,14.41
2022-12-29T15:26:06.259Z,14.47
2022-12-29T15:28:43.026Z,14.47
2022-12-29T15:31:18.010Z,14.36
2022-12-29T15:33:52.662Z,14.14
2022-12-29T15:36:26.784Z,14.06
2022-12-29T15:38:55.739Z,14.04
2022-12-29T15:42:02.450Z,14.17
2022-12-29T15:44:41.370Z,13.94
2022-12-29T15:47:18.821Z,13.87
2022-12-29T15:49:52.145Z,13.76
2022-12-29T15:52:22.550Z,14.05
2022-12-29T15:54:53.281Z,14.19
2022-12-29T15:57:31.740Z,14.14
2022-12-29T16:00:01.075Z,13.89
2022-12-29T16:02:29.120Z,13.91
2022-12-29T16:08:00.585Z,14.23
2022-12-29T16:10:41.165Z,14.36
2022-12-29T16:13:39.617Z,14.44
2022-12-29T16:16:28.170Z,14.52
2022-12-29T16:19:12.754Z,14.53
2022-12-29T16:21:42.267Z,14.57
2022-12-29T16:24:24.259Z,14.40
2022-12-29T16:27:20.564Z,14.18
2022-12-29T16:29:53.620Z,13.91
2022-12-29T16:32:32.888Z,14.01
2022-12-29T16:35:14.762Z,13.84
2022-12-29T16:37:42.515Z,13.88
2022-12-29T16:40:27.054Z,13.89
2022-12-29T16:43:05.375Z,13.77
2022-12-29T16:45:48.393Z,14.04
2022-12-29T16:48:28.381Z,14.03
2022-12-29T16:51:14.602Z,13.91
2022-12-29T16:53:50.450Z,13.52
2022-12-29T16:56:26.427Z,13.48
2022-12-29T16:59:07.007Z,13.49
2022-12-29T17:01:39.299Z,13.40
2022-12-29T17:04:13.399Z,13.36
2022-12-29T17:06:41.719Z,13.33
2022-12-29T17:09:35.901Z,13.41
2022-12-29T17:12:10.757Z,13.32
2022-12-29T17:15:00.696Z,13.37
2022-12-29T17:17:41.200Z,13.36
2022-12-29T17:20:29.739Z,13.09
2022-12-29T17:22:59.221Z,13.06
2022-12-29T17:25:37.647Z,12.97
2022-12-29T17:28:28.126Z,12.82
2022-12-29T17:31:07.088Z,12.77
2022-12-29T17:33:40.112Z,12.86
2022-12-29T17:36:08.224Z,12.84
2022-12-29T17:38:37.516Z,12.84
2022-12-29T17:41:05.266Z,12.85
2022-12-29T17:43:37.075Z,12.88
2022-12-29T17:46:08.366Z,12.79
2022-12-29T17:48:37.116Z,12.83
2022-12-29T17:51:05.324Z,12.74
2022-12-29T17:53:33.166Z,12.75
2022-12-29T17:56:00.969Z,12.80
2022-12-29T17:58:31.621Z,12.78
2022-12-29T18:01:02.936Z,12.71
2022-12-29T18:03:38.127Z,12.74
2022-12-29T18:06:08.425Z,12.73
2022-12-29T18:08:39.150Z,12.66
2022-12-29T18:11:27.179Z,12.75
2022-12-29T18:13:55.615Z,12.78
2022-12-29T18:16:26.581Z,12.80
2022-12-29T18:18:54.417Z,12.83
2022-12-29T18:21:24.989Z,12.83
2022-12-29T18:23:52.928Z,12.81
2022-12-29T18:26:27.962Z,12.86
2022-12-29T18:28:58.366Z,12.91
2022-12-29T18:31:29.639Z,12.83
2022-12-29T18:34:00.223Z,12.85
2022-12-29T18:36:31.767Z,12.81
2022-12-29T18:39:03.201Z,12.72
2022-12-29T18:41:31.785Z,12.53
2022-12-29T18:44:00.778Z,11.94
2022-12-29T18:46:30.468Z,11.88
2022-12-29T18:48:58.921Z,11.72
2022-12-29T18:51:27.446Z,11.55
2022-12-29T18:53:55.354Z,11.39
2022-12-29T18:56:25.261Z,11.33
2022-12-29T18:58:56.828Z,11.17
2022-12-29T19:01:31.750Z,11.10
2022-12-29T19:03:59.517Z,11.11
2022-12-29T19:06:27.180Z,11.03
2022-12-29T19:08:55.251Z,11.03
2022-12-29T19:11:24.345Z,11.05
2022-12-29T19:13:52.473Z,11.10
2022-12-29T19:16:22.545Z,11.05
2022-12-29T19:19:08.456Z,10.93
2022-12-29T19:21:38.163Z,10.91
2022-12-29T19:24:06.745Z,10.96
2022-12-29T19:26:38.203Z,11.07
2022-12-29T19:29:11.523Z,11.10
2022-12-29T19:31:39.877Z,11.14
2022-12-29T19:34:07.794Z,11.15
2022-12-29T19:36:35.564Z,11.22
2022-12-29T19:39:03.565Z,11.29
2022-12-29T19:41:31.776Z,11.34
2022-12-29T19:43:59.467Z,11.21
2022-12-29T19:46:27.634Z,11.18
2022-12-29T19:48:58.955Z,11.15
2022-12-29T19:51:27.904Z,11.10
2022-12-29T19:53:55.880Z,11.09
2022-12-29T19:56:23.864Z,10.87
2022-12-29T19:58:51.698Z,10.84
2022-12-29T20:01:22.795Z,10.83
2022-12-29T20:03:51.834Z,10.76
2022-12-29T20:06:20.224Z,10.69
2022-12-29T20:08:48.156Z,10.71
2022-12-29T20:11:20.979Z,10.69
2022-12-29T20:13:48.674Z,10.70
2022-12-29T20:16:19.558Z,10.66
2022-12-29T20:18:48.778Z,10.59
2022-12-29T20:21:21.774Z,10.44
2022-12-29T20:23:51.316Z,10.30
2022-12-29T20:26:28.792Z,10.38
2022-12-29T20:29:00.154Z,10.46
2022-12-29T20:31:36.223Z,10.48
2022-12-29T20:34:05.724Z,10.29
2022-12-29T20:36:36.021Z,10.31
2022-12-29T20:39:09.172Z,10.27
2022-12-29T20:41:37.036Z,10.27
2022-12-29T20:44:05.386Z,10.31
2022-12-29T20:46:41.034Z,10.31
2022-12-29T20:49:11.440Z,10.36
2022-12-29T20:52:04.901Z,10.28
2022-12-29T20:54:27.454Z,10.24
2022-12-29T20:56:55.396Z,10.29
2022-12-29T20:59:27.805Z,10.12
2022-12-29T21:01:57.800Z,10.19
2022-12-29T21:04:25.958Z,10.21
2022-12-29T21:06:54.380Z,10.23
2022-12-29T21:09:22.359Z,10.30
2022-12-29T21:11:50.291Z,10.32
2022-12-29T21:14:17.968Z,10.18
2022-12-29T21:16:47.043Z,10.16
2022-12-29T21:19:16.166Z,10.05
2022-12-29T21:21:43.830Z,9.85
2022-12-29T21:24:11.400Z,9.69
2022-12-29T21:26:38.943Z,9.68
2022-12-29T21:29:06.559Z,9.77
2022-12-29T21:31:37.682Z,9.80
2022-12-29T21:34:06.637Z,9.65
2022-12-29T21:36:34.634Z,9.45
2022-12-29T21:39:03.614Z,9.35
2022-12-29T21:41:32.317Z,9.30
2022-12-29T21:44:18.508Z,9.40
2022-12-29T21:46:47.795Z,8.97
2022-12-29T21:49:16.385Z,9.15
2022-12-29T21:51:55.237Z,9.06
2022-12-29T21:54:47.847Z,8.35
2022-12-29T21:57:37.171Z,8.31
2022-12-29T22:00:26.853Z,8.30
2022-12-29T22:03:21.907Z,8.53
2022-12-29T22:06:11.532Z,8.82
2022-12-29T22:08:58.688Z,8.97
2022-12-29T22:11:45.329Z,8.19
2022-12-29T22:14:13.174Z,8.16
2022-12-29T22:16:40.892Z,8.15
2022-12-29T22:19:10.509Z,8.21
2022-12-29T22:21:38.118Z,8.22
2022-12-29T22:24:06.322Z,8.33
2022-12-29T22:26:34.142Z,8.29
2022-12-29T22:29:01.834Z,8.29
2022-12-29T22:31:30.773Z,8.37
2022-12-29T22:34:01.631Z,8.55
2022-12-29T22:36:29.713Z,8.27
2022-12-29T22:38:57.868Z,8.22
2022-12-29T22:41:25.534Z,8.28
2022-12-29T22:43:53.289Z,8.23
2022-12-29T22:46:21.055Z,8.57
2022-12-29T22:48:49.002Z,8.41
2022-12-29T22:51:16.782Z,8.68
2022-12-29T22:53:45.594Z,8.86
2022-12-29T22:56:17.946Z,9.09
2022-12-29T22:58:48.453Z,9.13
2022-12-29T23:01:19.051Z,8.99
2022-12-29T23:03:46.871Z,9.08
2022-12-29T23:06:16.944Z,9.12
2022-12-29T23:08:46.521Z,8.98
2022-12-29T23:11:14.883Z,8.94
2022-12-29T23:13:45.232Z,9.07
2022-12-29T23:16:15.153Z,9.37
2022-12-29T23:18:44.473Z,9.50
2022-12-29T23:21:12.521Z,9.56
2022-12-29T23:24:03.970Z,9.09
2022-12-29T23:26:38.474Z,9.11
2022-12-29T23:29:09.117Z,9.21
2022-12-29T23:31:37.566Z,9.37
2022-12-29T23:34:07.613Z,9.14
2022-12-29T23:36:35.743Z,9.35
2022-12-29T23:39:04.431Z,9.47
2022-12-29T23:41:32.146Z,9.49
2022-12-29T23:43:59.702Z,9.39
2022-12-29T23:46:29.268Z,9.14
2022-12-29T23:48:57.620Z,9.28
2022-12-29T23:51:25.311Z,9.33
2022-12-29T23:53:52.916Z,9.40
2022-12-29T23:56:22.939Z,9.41
2022-12-29T23:58:51.899Z,9.50
